createdAt,value
2018-02-10T00:01:01.677Z,45.40
2018-02-10T00:03:29.163Z,44.08
2018-02-10T00:05:56.677Z,45.10
2018-02-10T00:08:24.949Z,43.60
2018-02-10T00:10:53.215Z,45.00
2018-02-10T00:13:21.512Z,43.92
2018-02-10T00:15:49.015Z,44.30
2018-02-10T00:18:16.509Z,45.00
2018-02-10T00:20:44.784Z,43.63
2018-02-10T00:23:12.274Z,45.72
2018-02-10T00:25:39.813Z,44.83
2018-02-10T00:28:08.072Z,45.42
2018-02-10T00:30:35.647Z,45.25
2018-02-10T00:33:03.929Z,45.53
2018-02-10T00:35:32.187Z,44.88
2018-02-10T00:37:59.678Z,44.80
2018-02-10T00:40:27.180Z,46.85
2018-02-10T00:42:54.679Z,44.58
2018-02-10T00:45:22.950Z,46.28
2018-02-10T00:47:51.233Z,42.45
2018-02-10T00:50:19.509Z,44.60
2018-02-10T00:52:47.763Z,45.15
2018-02-10T00:55:15.344Z,44.55
2018-02-10T00:57:43.607Z,46.47
2018-02-10T01:00:11.944Z,43.35
2018-02-10T01:02:39.532Z,47.45
2018-02-10T01:05:07.204Z,45.42
2018-02-10T01:07:35.572Z,44.97
2018-02-10T01:10:03.152Z,44.45
2018-02-10T01:12:31.620Z,44.78
2018-02-10T01:14:59.965Z,45.12
2018-02-10T01:17:27.561Z,46.47
2018-02-10T01:19:55.924Z,44.50
2018-02-10T01:22:23.649Z,46.08
2018-02-10T01:24:51.221Z,47.03
2018-02-10T01:27:18.804Z,45.67
2018-02-10T01:29:46.379Z,45.67
2018-02-10T01:32:14.736Z,42.92
2018-02-10T01:34:42.322Z,44.88
2018-02-10T01:37:10.708Z,46.05
2018-02-10T01:39:39.058Z,44.08
2018-02-10T01:42:06.648Z,46.83
2018-02-10T01:44:34.984Z,44.97
2018-02-10T01:47:02.572Z,45.83
2018-02-10T01:49:30.921Z,45.95
2018-02-10T01:51:58.516Z,45.40
2018-02-10T01:54:26.863Z,45.38
2018-02-10T01:56:54.559Z,46.83
2018-02-10T01:59:22.936Z,45.03
2018-02-10T02:01:51.318Z,45.25
2018-02-10T02:04:19.673Z,45.55
2018-02-10T02:06:47.352Z,45.97
2018-02-10T02:09:15.012Z,44.15
2018-02-10T02:11:42.602Z,46.08
2018-02-10T02:14:10.242Z,46.37
2018-02-10T02:16:38.609Z,44.33
2018-02-10T02:19:06.189Z,47.72
2018-02-10T02:21:34.542Z,44.92
2018-02-10T02:24:02.469Z,46.42
2018-02-10T02:26:30.060Z,44.63
2018-02-10T02:28:57.645Z,48.33
2018-02-10T02:31:26.014Z,45.28
2018-02-10T02:33:53.594Z,45.60
2018-02-10T02:36:21.961Z,47.38
2018-02-10T02:38:50.313Z,46.50
2018-02-10T02:41:17.911Z,46.67
2018-02-10T02:43:46.277Z,45.95
2018-02-10T02:46:14.637Z,48.20
2018-02-10T02:48:42.223Z,47.50
2018-02-10T02:51:10.577Z,48.87
2018-02-10T02:53:38.291Z,47.35
2018-02-10T02:56:05.874Z,47.90
2018-02-10T02:58:33.464Z,48.17
2018-02-10T03:01:01.148Z,47.38
2018-02-10T03:03:29.501Z,46.70
2018-02-10T03:05:57.877Z,47.00
2018-02-10T03:08:25.565Z,47.60
2018-02-10T03:10:53.947Z,47.95
2018-02-10T03:13:22.325Z,45.95
2018-02-10T03:15:50.685Z,46.50
2018-02-10T03:18:18.282Z,46.97
2018-02-10T03:20:45.874Z,48.70
2018-02-10T03:23:13.451Z,48.33
2018-02-10T03:25:41.141Z,48.35
2018-02-10T03:28:09.501Z,48.40
2018-02-10T03:30:37.184Z,50.35
2018-02-10T03:33:05.548Z,49.60
2018-02-10T03:35:33.144Z,50.53
2018-02-10T03:38:00.721Z,47.92
2018-02-10T03:40:28.307Z,49.47
2018-02-10T03:42:55.886Z,50.58
2018-02-10T03:45:24.016Z,48.28
2018-02-10T03:47:51.647Z,48.85
2018-02-10T03:50:20.024Z,49.83
2018-02-10T03:52:48.379Z,50.92
2018-02-10T03:55:16.788Z,50.30
2018-02-10T03:57:45.129Z,50.55
2018-02-10T04:00:12.716Z,51.40
2018-02-10T04:02:41.073Z,50.12
2018-02-10T04:05:08.756Z,50.33
2018-02-10T04:07:37.115Z,52.03
2018-02-10T04:10:04.800Z,50.80
2018-02-10T04:12:33.182Z,48.95
2018-02-10T04:15:01.556Z,50.97
2018-02-10T04:17:29.940Z,49.83
2018-02-10T04:19:58.290Z,51.58
2018-02-10T04:22:25.879Z,51.67
2018-02-10T04:24:54.329Z,50.10
2018-02-10T04:27:21.908Z,50.72
2018-02-10T04:29:49.575Z,49.75
2018-02-10T04:32:18.865Z,51.25
2018-02-10T04:34:46.593Z,49.92
2018-02-10T04:37:14.251Z,51.53
2018-02-10T04:39:41.851Z,49.50
2018-02-10T04:42:09.441Z,49.92
2018-02-10T04:44:37.804Z,48.83
2018-02-10T04:47:06.163Z,49.00
2018-02-10T04:49:33.903Z,49.15
2018-02-10T04:52:01.466Z,49.38
2018-02-10T04:54:29.045Z,50.22
2018-02-10T04:56:56.637Z,50.85
2018-02-10T04:59:24.999Z,51.25
2018-02-10T05:01:53.375Z,50.53
2018-02-10T05:04:20.968Z,52.05
2018-02-10T05:06:48.559Z,51.22
2018-02-10T05:09:16.246Z,50.03
2018-02-10T05:11:44.682Z,53.15
2018-02-10T05:14:12.288Z,52.03
2018-02-10T05:16:40.000Z,49.03
2018-02-10T05:19:07.679Z,50.28
2018-02-10T05:21:35.272Z,52.67
2018-02-10T05:24:03.776Z,51.55
2018-02-10T05:26:32.228Z,50.90
2018-02-10T05:28:59.908Z,49.78
2018-02-10T05:31:28.485Z,51.55
2018-02-10T05:33:56.214Z,52.42
2018-02-10T05:36:24.004Z,50.95
2018-02-10T05:38:51.904Z,52.00
2018-02-10T05:41:19.631Z,53.15
2018-02-10T05:43:47.222Z,49.53
2018-02-10T05:46:15.601Z,49.95
2018-02-10T05:48:44.184Z,51.40
2018-02-10T05:51:12.605Z,52.05
2018-02-10T05:53:41.848Z,50.85
2018-02-10T05:56:09.646Z,50.17
2018-02-10T05:58:37.393Z,52.03
2018-02-10T06:01:05.012Z,49.50
2018-02-10T06:03:32.959Z,51.20
2018-02-10T06:06:00.545Z,49.83
2018-02-10T06:08:28.125Z,52.75
2018-02-10T06:10:55.844Z,50.88
2018-02-10T06:13:23.453Z,51.28
2018-02-10T06:15:51.255Z,49.45
2018-02-10T06:18:19.661Z,52.35
2018-02-10T06:20:47.928Z,49.40
2018-02-10T06:23:15.541Z,49.00
2018-02-10T06:25:43.348Z,48.38
2018-02-10T06:28:10.948Z,47.42
2018-02-10T06:30:38.757Z,48.55
2018-02-10T06:33:07.404Z,49.42
2018-02-10T06:35:35.952Z,50.03
2018-02-10T06:38:03.596Z,49.38
2018-02-10T06:40:31.439Z,49.97
2018-02-10T06:43:00.575Z,51.17
2018-02-10T06:45:28.279Z,47.72
2018-02-10T06:47:55.973Z,49.40
2018-02-10T06:50:23.635Z,49.00
2018-02-10T06:52:52.017Z,48.15
2018-02-10T06:55:19.619Z,48.15
2018-02-10T06:57:48.041Z,49.30
2018-02-10T07:00:16.405Z,48.33
2018-02-10T07:02:45.495Z,46.45
2018-02-10T07:05:13.129Z,48.33
2018-02-10T07:07:40.733Z,50.05
2018-02-10T07:10:09.414Z,48.65
2018-02-10T07:12:36.992Z,50.92
2018-02-10T07:15:05.359Z,52.03
2018-02-10T07:17:32.991Z,48.55
2018-02-10T07:20:00.682Z,48.90
2018-02-10T07:22:29.087Z,51.58
2018-02-10T07:24:57.443Z,48.00
2018-02-10T07:27:25.111Z,47.78
2018-02-10T07:29:53.471Z,49.47
2018-02-10T07:32:21.064Z,48.78
2018-02-10T07:34:49.506Z,46.95
2018-02-10T07:37:17.105Z,47.60
2018-02-10T07:39:45.620Z,49.55
2018-02-10T07:42:13.197Z,49.38
2018-02-10T07:44:40.901Z,52.10
2018-02-10T07:47:09.261Z,52.42
2018-02-10T07:49:36.975Z,48.97
2018-02-10T07:52:04.548Z,50.10
2018-02-10T07:54:32.137Z,50.15
2018-02-10T07:57:00.507Z,50.53
2018-02-10T07:59:28.253Z,48.67
2018-02-10T08:01:55.848Z,48.83
2018-02-10T08:04:24.190Z,50.50
2018-02-10T08:06:51.799Z,49.05
2018-02-10T08:09:20.229Z,48.97
2018-02-10T08:11:47.841Z,48.53
2018-02-10T08:14:16.215Z,46.42
2018-02-10T08:16:43.829Z,48.92
2018-02-10T08:19:11.416Z,49.80
2018-02-10T08:21:39.029Z,47.05
2018-02-10T08:24:06.668Z,49.10
2018-02-10T08:26:35.053Z,51.33
2018-02-10T08:29:03.472Z,51.10
2018-02-10T08:31:31.228Z,51.20
2018-02-10T08:33:58.855Z,50.20
2018-02-10T08:36:27.276Z,53.53
2018-02-10T08:38:54.864Z,48.72
2018-02-10T08:41:22.543Z,49.30
2018-02-10T08:43:50.152Z,50.03
2018-02-10T08:46:17.818Z,52.75
2018-02-10T08:48:45.405Z,51.22
2018-02-10T08:51:13.000Z,48.83
2018-02-10T08:53:41.470Z,50.60
2018-02-10T08:56:10.232Z,47.90
2018-02-10T08:58:37.853Z,47.88
2018-02-10T09:01:05.498Z,48.67
2018-02-10T09:03:33.869Z,47.90
2018-02-10T09:06:02.221Z,49.72
2018-02-10T09:08:29.802Z,49.28
2018-02-10T09:10:58.158Z,50.72
2018-02-10T09:13:25.872Z,51.50
2018-02-10T09:15:53.508Z,52.28
2018-02-10T09:18:21.897Z,53.33
2018-02-10T09:20:49.500Z,51.30
2018-02-10T09:23:17.091Z,49.97
2018-02-10T09:25:44.692Z,49.22
2018-02-10T09:28:12.311Z,51.72
2018-02-10T09:30:40.019Z,50.95
2018-02-10T09:33:07.608Z,49.13
2018-02-10T09:35:35.263Z,52.83
2018-02-10T09:38:02.912Z,51.85
2018-02-10T09:40:30.494Z,51.85
2018-02-10T09:42:58.084Z,48.85
2018-02-10T09:45:25.668Z,49.28
2018-02-10T09:47:54.150Z,49.65
2018-02-10T09:50:21.780Z,48.65
2018-02-10T09:52:49.369Z,48.70
2018-02-10T09:55:17.724Z,48.95
2018-02-10T09:57:45.397Z,48.65
2018-02-10T10:00:12.969Z,43.78
2018-02-10T10:02:42.362Z,46.33
2018-02-10T10:05:09.943Z,45.55
2018-02-10T10:07:37.530Z,43.47
2018-02-10T10:10:05.107Z,41.00
2018-02-10T10:12:32.701Z,42.70
2018-02-10T10:15:01.085Z,42.90
2018-02-10T10:17:29.503Z,41.78
2018-02-10T10:19:57.120Z,42.03
2018-02-10T10:22:27.006Z,41.63
2018-02-10T10:24:54.593Z,41.55
2018-02-10T10:27:22.328Z,40.67
2018-02-10T10:29:50.041Z,40.10
2018-02-10T10:32:17.658Z,38.38
2018-02-10T10:34:45.274Z,47.72
2018-02-10T10:37:12.876Z,41.28
2018-02-10T10:39:40.485Z,39.15
2018-02-10T10:42:08.887Z,36.95
2018-02-10T10:44:36.526Z,37.20
2018-02-10T10:47:04.919Z,36.40
2018-02-10T10:49:32.544Z,37.25
2018-02-10T10:52:00.162Z,37.58
2018-02-10T10:54:27.788Z,38.03
2018-02-10T10:56:56.145Z,34.90
2018-02-10T10:59:23.761Z,35.78
2018-02-10T11:01:51.363Z,34.92
2018-02-10T11:04:18.957Z,34.83
2018-02-10T11:06:46.568Z,35.00
2018-02-10T11:09:14.276Z,34.00
2018-02-10T11:11:42.669Z,33.40
2018-02-10T11:14:10.296Z,34.92
2018-02-10T11:16:38.736Z,33.53
2018-02-10T11:19:06.359Z,34.25
2018-02-10T11:21:34.733Z,33.20
2018-02-10T11:24:03.180Z,33.78
2018-02-10T11:26:31.652Z,35.78
2018-02-10T11:29:00.273Z,33.13
2018-02-10T11:31:28.665Z,46.55
2018-02-10T11:33:56.329Z,34.72
2018-02-10T11:36:24.689Z,33.50
2018-02-10T11:38:53.784Z,31.98
2018-02-10T11:41:22.136Z,32.78
2018-02-10T11:43:49.728Z,32.33
2018-02-10T11:46:18.155Z,31.92
2018-02-10T11:48:45.728Z,31.55
2018-02-10T11:51:13.337Z,34.38
2018-02-10T11:53:41.681Z,31.62
2018-02-10T11:56:09.328Z,32.70
2018-02-10T11:58:36.905Z,30.98
2018-02-10T12:01:05.028Z,30.62
2018-02-10T12:03:32.661Z,31.62
2018-02-10T12:06:01.030Z,31.10
2018-02-10T12:08:29.572Z,33.00
2018-02-10T12:10:57.247Z,30.90
2018-02-10T12:13:24.857Z,31.20
2018-02-10T12:15:53.252Z,30.95
2018-02-10T12:18:20.967Z,31.50
2018-02-10T12:20:48.600Z,30.85
2018-02-10T12:23:16.218Z,29.20
2018-02-10T12:25:44.615Z,31.33
2018-02-10T12:28:12.253Z,30.67
2018-02-10T12:30:40.617Z,29.85
2018-02-10T12:33:08.243Z,29.98
2018-02-10T12:35:35.844Z,28.50
2018-02-10T12:38:03.441Z,30.75
2018-02-10T12:40:33.986Z,31.45
2018-02-10T12:43:01.600Z,30.00
2018-02-10T12:45:30.477Z,29.70
2018-02-10T12:51:02.355Z,30.35
2018-02-10T12:53:29.957Z,30.37
2018-02-10T12:55:57.537Z,29.92
2018-02-10T12:58:25.140Z,29.63
2018-02-10T13:00:52.732Z,31.27
2018-02-10T13:03:20.390Z,29.85
2018-02-10T13:05:47.997Z,29.75
2018-02-10T13:08:15.654Z,30.80
2018-02-10T13:10:43.272Z,28.95
2018-02-10T13:13:11.666Z,32.85
2018-02-10T13:15:39.240Z,30.90
2018-02-10T13:18:07.713Z,30.10
2018-02-10T13:20:36.561Z,28.80
2018-02-10T13:23:04.164Z,28.23
2018-02-10T13:25:31.754Z,31.45
2018-02-10T13:27:59.370Z,29.48
2018-02-10T13:30:28.700Z,28.73
2018-02-10T13:32:56.300Z,29.35
2018-02-10T13:35:24.767Z,29.20
2018-02-10T13:37:52.383Z,28.83
2018-02-10T13:40:19.977Z,29.65
2018-02-10T13:42:47.575Z,29.12
2018-02-10T13:45:15.945Z,28.48
2018-02-10T13:47:43.536Z,26.33
2018-02-10T13:50:11.903Z,26.27
2018-02-10T13:52:40.280Z,26.55
2018-02-10T13:55:08.656Z,27.75
2018-02-10T13:57:37.531Z,25.02
2018-02-10T14:00:05.131Z,26.15
2018-02-10T14:02:32.721Z,25.15
2018-02-10T14:05:00.332Z,26.98
2018-02-10T14:07:28.690Z,29.33
2018-02-10T14:09:56.305Z,27.37
2018-02-10T14:12:23.935Z,25.62
2018-02-10T14:14:52.317Z,24.48
2018-02-10T14:17:20.092Z,25.02
2018-02-10T14:19:47.866Z,26.85
2018-02-10T14:22:15.467Z,24.80
2018-02-10T14:24:43.077Z,26.67
2018-02-10T14:27:11.477Z,26.17
2018-02-10T14:29:39.105Z,25.33
2018-02-10T14:32:07.491Z,25.10
2018-02-10T14:34:35.877Z,25.48
2018-02-10T14:37:03.470Z,26.25
2018-02-10T14:39:31.062Z,25.70
2018-02-10T14:41:58.768Z,25.20
2018-02-10T14:44:26.512Z,25.40
2018-02-10T14:46:54.868Z,25.30
2018-02-10T14:49:22.562Z,25.95
2018-02-10T14:51:51.035Z,30.88
2018-02-10T14:54:19.376Z,26.75
2018-02-10T14:56:47.443Z,27.02
2018-02-10T14:59:15.208Z,25.73
2018-02-10T15:01:43.633Z,26.62
2018-02-10T15:04:12.017Z,26.83
2018-02-10T15:06:39.885Z,32.90
2018-02-10T15:09:08.404Z,30.02
2018-02-10T15:11:36.842Z,27.00
2018-02-10T15:14:04.556Z,27.55
2018-02-10T15:16:33.000Z,27.85
2018-02-10T15:19:00.594Z,29.05
2018-02-10T15:21:28.233Z,28.27
2018-02-10T15:23:55.866Z,29.15
2018-02-10T15:26:24.265Z,28.38
2018-02-10T15:28:51.951Z,28.02
2018-02-10T15:31:25.572Z,28.77
2018-02-10T15:34:05.025Z,27.05
2018-02-10T15:36:32.717Z,28.73
2018-02-10T15:39:01.075Z,27.75
2018-02-10T15:41:29.676Z,26.40
2018-02-10T15:43:58.962Z,25.50
2018-02-10T15:46:27.421Z,28.65
2018-02-10T15:48:55.325Z,28.90
2018-02-10T15:51:23.014Z,28.87
2018-02-10T15:53:51.855Z,28.10
2018-02-10T15:56:19.496Z,26.27
2018-02-10T15:58:47.662Z,27.65
2018-02-10T16:01:15.610Z,28.40
2018-02-10T16:03:43.428Z,27.35
2018-02-10T16:06:11.325Z,26.75
2018-02-10T16:08:38.941Z,26.77
2018-02-10T16:11:06.703Z,26.70
2018-02-10T16:13:35.113Z,27.83
2018-02-10T16:16:03.529Z,26.15
2018-02-10T16:18:31.204Z,27.50
2018-02-10T16:20:58.826Z,26.55
2018-02-10T16:23:27.164Z,27.25
2018-02-10T16:25:54.765Z,28.20
2018-02-10T16:28:23.144Z,25.95
2018-02-10T16:30:50.952Z,26.92
2018-02-10T16:33:18.798Z,27.35
2018-02-10T16:35:46.740Z,25.65
2018-02-10T16:38:14.535Z,26.65
2018-02-10T16:40:42.174Z,25.08
2018-02-10T16:43:10.581Z,27.20
2018-02-10T16:45:38.317Z,28.15
2018-02-10T16:48:05.942Z,26.33
2018-02-10T16:50:34.352Z,26.62
2018-02-10T16:53:02.737Z,26.23
2018-02-10T16:55:31.091Z,27.33
2018-02-10T16:57:58.928Z,26.60
2018-02-10T17:00:26.511Z,26.60
2018-02-10T17:02:54.257Z,25.37
2018-02-10T17:05:21.889Z,24.60
2018-02-10T17:07:49.637Z,27.83
2018-02-10T17:10:18.082Z,26.80
2018-02-10T17:12:45.688Z,32.50
2018-02-10T17:15:13.373Z,28.40
2018-02-10T17:17:40.991Z,28.48
2018-02-10T17:20:09.775Z,28.70
2018-02-10T17:22:38.137Z,30.75
2018-02-10T17:25:06.579Z,32.25
2018-02-10T17:27:34.244Z,30.75
2018-02-10T17:30:01.963Z,32.38
2018-02-10T17:32:30.390Z,32.58
2018-02-10T17:34:58.049Z,30.23
2018-02-10T17:37:25.681Z,30.65
2018-02-10T17:39:53.262Z,32.20
2018-02-10T17:42:20.858Z,33.25
2018-02-10T17:44:48.471Z,30.65
2018-02-10T17:47:16.213Z,29.52
2018-02-10T17:49:44.720Z,30.00
2018-02-10T17:52:12.306Z,30.02
2018-02-10T17:54:39.966Z,40.25
2018-02-10T17:57:07.572Z,45.22
2018-02-10T17:59:35.943Z,38.88
2018-02-10T18:02:03.568Z,37.97
2018-02-10T18:04:31.362Z,35.22
2018-02-10T18:06:59.791Z,35.80
2018-02-10T18:09:27.392Z,35.17
2018-02-10T18:11:55.029Z,31.70
2018-02-10T18:14:22.693Z,30.10
2018-02-10T18:16:50.515Z,28.75
2018-02-10T18:19:18.906Z,28.90
2018-02-10T18:21:46.491Z,28.83
2018-02-10T18:24:14.160Z,25.67
2018-02-10T18:26:41.756Z,28.77
2018-02-10T18:29:09.350Z,28.98
2018-02-10T18:31:37.354Z,26.90
2018-02-10T18:34:04.942Z,29.73
2018-02-10T18:36:32.534Z,27.27
2018-02-10T18:39:00.893Z,28.87
2018-02-10T18:41:28.497Z,30.95
2018-02-10T18:43:56.145Z,29.98
2018-02-10T18:46:23.754Z,29.70
2018-02-10T18:48:51.323Z,28.40
2018-02-10T18:51:19.000Z,29.00
2018-02-10T18:53:47.361Z,28.02
2018-02-10T18:56:14.944Z,27.77
2018-02-10T18:58:43.325Z,28.77
2018-02-10T19:01:10.953Z,29.67
2018-02-10T19:03:38.666Z,31.55
2018-02-10T19:06:07.033Z,30.50
2018-02-10T19:08:35.384Z,30.33
2018-02-10T19:11:03.002Z,29.17
2018-02-10T19:13:30.582Z,27.60
2018-02-10T19:15:58.193Z,29.25
2018-02-10T19:18:26.543Z,29.17
2018-02-10T19:20:54.282Z,28.35
2018-02-10T19:23:21.895Z,29.42
2018-02-10T19:25:50.266Z,28.58
2018-02-10T19:28:18.632Z,29.05
2018-02-10T19:30:46.258Z,28.17
2018-02-10T19:33:13.874Z,29.63
2018-02-10T19:35:42.254Z,28.02
2018-02-10T19:38:10.637Z,29.33
2018-02-10T19:40:39.125Z,28.85
2018-02-10T19:43:08.049Z,30.55
2018-02-10T19:45:35.666Z,28.98
2018-02-10T19:48:04.980Z,29.87
2018-02-10T19:50:33.340Z,28.92
2018-02-10T19:53:00.932Z,30.40
2018-02-10T19:55:28.587Z,29.30
2018-02-10T19:57:56.967Z,29.42
2018-02-10T20:00:24.585Z,29.37
2018-02-10T20:02:52.289Z,29.42
2018-02-10T20:05:19.921Z,29.27
2018-02-10T20:07:47.540Z,30.30
2018-02-10T20:10:15.437Z,29.80
2018-02-10T20:12:43.122Z,30.85
2018-02-10T20:15:11.467Z,31.52
2018-02-10T20:17:39.469Z,31.15
2018-02-10T20:20:07.883Z,30.45
2018-02-10T20:22:35.504Z,28.02
2018-02-10T20:25:03.093Z,28.45
2018-02-10T20:27:30.735Z,28.27
2018-02-10T20:29:59.113Z,28.10
2018-02-10T20:32:27.477Z,28.73
2018-02-10T20:34:55.145Z,31.33
2018-02-10T20:37:23.542Z,27.30
2018-02-10T20:39:51.952Z,27.15
2018-02-10T20:42:19.581Z,28.15
2018-02-10T20:44:49.077Z,28.27
2018-02-10T20:47:17.465Z,25.12
2018-02-10T20:49:45.897Z,26.85
2018-02-10T20:52:13.505Z,26.80
2018-02-10T20:54:41.895Z,25.70
2018-02-10T20:57:09.545Z,25.45
2018-02-10T20:59:37.911Z,27.05
2018-02-10T21:02:06.271Z,26.30
2018-02-10T21:04:33.866Z,27.13
2018-02-10T21:07:03.810Z,25.33
2018-02-10T21:09:31.556Z,25.58
2018-02-10T21:11:59.152Z,26.55
2018-02-10T21:14:26.758Z,26.87
2018-02-10T21:16:55.142Z,25.88
2018-02-10T21:19:23.876Z,25.05
2018-02-10T21:21:51.602Z,24.92
2018-02-10T21:24:19.957Z,26.12
2018-02-10T21:26:47.783Z,24.87
2018-02-10T21:29:15.549Z,25.10
2018-02-10T21:31:43.162Z,26.55
2018-02-10T21:34:11.540Z,25.23
2018-02-10T21:36:39.895Z,25.95
2018-02-10T21:39:07.477Z,24.85
2018-02-10T21:41:35.832Z,25.27
2018-02-10T21:44:03.406Z,23.73
2018-02-10T21:46:31.800Z,23.98
2018-02-10T21:49:00.210Z,25.55
2018-02-10T21:51:27.837Z,25.92
2018-02-10T21:53:56.189Z,25.25
2018-02-10T21:56:23.885Z,24.58
2018-02-10T21:58:52.232Z,26.10
2018-02-10T22:01:19.824Z,25.95
2018-02-10T22:03:48.176Z,25.85
2018-02-10T22:06:16.616Z,27.58
2018-02-10T22:08:44.239Z,25.65
2018-02-10T22:11:12.581Z,27.27
2018-02-10T22:13:41.022Z,25.40
2018-02-10T22:16:08.656Z,25.77
2018-02-10T22:18:36.983Z,24.65
2018-02-10T22:21:04.565Z,27.17
2018-02-10T22:23:32.251Z,25.23
2018-02-10T22:26:00.705Z,25.58
2018-02-10T22:28:28.355Z,26.30
2018-02-10T22:30:55.938Z,24.77
2018-02-10T22:33:23.526Z,25.52
2018-02-10T22:35:51.892Z,29.15
2018-02-10T22:38:20.325Z,26.87
2018-02-10T22:40:47.933Z,27.73
2018-02-10T22:43:16.284Z,25.60
2018-02-10T22:45:43.865Z,26.12
2018-02-10T22:48:12.972Z,24.73
2018-02-10T22:50:44.815Z,26.02
2018-02-10T22:53:13.196Z,25.00
2018-02-10T22:58:24.587Z,25.37
2018-02-10T23:00:52.400Z,25.37
2018-02-10T23:03:20.779Z,25.50
2018-02-10T23:05:49.286Z,26.52
2018-02-10T23:08:16.912Z,27.10
2018-02-10T23:10:45.457Z,26.58
2018-02-10T23:13:14.387Z,26.10
2018-02-10T23:15:42.466Z,26.02
2018-02-10T23:18:10.116Z,26.23
2018-02-10T23:20:39.566Z,25.98
2018-02-10T23:23:08.106Z,25.60
2018-02-10T23:25:55.973Z,26.73
2018-02-10T23:28:24.289Z,26.12
2018-02-10T23:30:52.352Z,26.50
2018-02-10T23:36:11.389Z,26.23
2018-02-10T23:38:41.147Z,26.08
2018-02-10T23:41:10.508Z,26.37
2018-02-10T23:43:39.132Z,26.87
2018-02-10T23:46:07.945Z,27.35
2018-02-10T23:48:37.264Z,26.30
2018-02-10T23:51:10.519Z,26.25
2018-02-10T23:53:38.219Z,27.10
2018-02-10T23:56:06.008Z,26.83
2018-02-10T23:58:33.837Z,29.12
